Grand Forks, ND

1:27 PM CST on November 21, 2014 (GMT -0600)
KNDGRAND8 | Change Station
CLOSE
Current Station
Personal Weather Station
Location: Grand Forks, ND
Elevation: 830 ft
Nearby Weather Stations

Elev 830 ft 47.94 °N, 97.06 °W | Updated 2 minutes ago

Overcast
Overcast
32.2 °F
Feels Like 22 °F
N
15.2
Wind Variable Wind from SSE
Gusts 15.2 mph

Today
High -- | Low -- °F
--% Chance of Precip.
Yesterday
High -- | Low -- °F
Precip. -- in
7:43 AM 4:44 PM
Waning Crescent, 1% visible
Pressure 29.74 in
Visibility 10.0 miles
Clouds Scattered Clouds 14000 ft
Mostly Cloudy 19000 ft
Overcast 25000 ft
Windchill 22 °F
Dew Point 23 °F
Humidity 69%
Rainfall 0.00 in
Snow Depth Not available.
UV 1 out of 12
Pollen .10 out of 12
Air Quality Not available.
Flu Activity Not available.
METAR KGFK 211853Z 19019G24KT 10SM SCT140 BKN190 OVC250 01/M06 A2970 RMK AO2 SLP071 T00061061

More Conditions Fewer Conditions

Pressure 29.74 in
Visibility 10.0 miles
Clouds Scattered Clouds 14000 ft
Mostly Cloudy 19000 ft
Overcast 25000 ft
Windchill 22 °F
Dew Point 23 °F
Humidity 69%
Rainfall 0.00 in
Snow Depth Not available.
UV 1 out of 12
Pollen .10 out of 12
Air Quality Not available.
Flu Activity Not available.
METAR KGFK 211853Z 19019G24KT 10SM SCT140 BKN190 OVC250 01/M06 A2970 RMK AO2 SLP071 T00061061

More Conditions Fewer Conditions

10-Day Weather Forecast

Almanac

Astronomy

Nov. 21, 2014 Rise Set
Actual Time
Civil Twilight
Nautical Twilight
Astronomical Twilight
Moon
Length of Visible Light
Length of Day
Tomorrow will be .
, % of the Moon is Illuminated

Today's Extremes

State Highs State Lows

Community

WunderPhotos

Upload Photos

1,772,703 photos uploaded!

WunderBlogs® & News

Nearby

Air Quality

  Air Quality AQ Index Pollutant
Not available.

Snow Depth

Station Depth Elevation

Earthquake Activity

City Distance Mag. Time & Date
Minimum magnitude displayed is 2.5.

Coastal Water Temperatures

Place Temperature

Nearby Weather Stations